Time;durP1;ratioP1;P1;durP2;ratioP2;P2;SDS_P1;SDS_P2;PMS_P1;PMS_P2;Temp;Humidity;BMP_temperature;BMP_pressure;BME280_temperature;BME280_humidity;BME280_pressure;Samples;Min_cycle;Max_cycle;Signal;HPM_P1;HPM_P2
2023/09/25 00:00:30;;;;;;;13.00;4.20;;;;;;;10.88;91.38;101502.17;109848;1283;22168;-75
2023/09/25 00:03:21;;;;;;;12.90;4.30;;;;;;;10.94;91.60;101497.26;109859;1283;22244;-75
2023/09/25 00:05:51;;;;;;;12.50;4.00;;;;;;;10.99;91.72;101501.00;109853;1280;22139;-75
2023/09/25 00:08:22;;;;;;;12.00;3.90;;;;;;;11.04;91.87;101490.42;109865;1283;22148;-75
2023/09/25 00:10:53;;;;;;;11.10;4.10;;;;;;;11.12;91.72;101488.63;109869;1280;22253;-75
2023/09/25 00:13:23;;;;;;;14.40;5.80;;;;;;;11.19;91.85;101486.15;109841;1283;22421;-76
2023/09/25 00:15:54;;;;;;;13.50;4.40;;;;;;;11.25;91.68;101485.71;109846;1273;22200;-75
2023/09/25 00:18:25;;;;;;;15.00;5.00;;;;;;;11.31;91.95;101483.88;109886;1276;22501;-75
2023/09/25 00:20:55;;;;;;;12.60;4.70;;;;;;;11.36;91.83;101485.94;109869;1283;22155;-75
2023/09/25 00:23:26;;;;;;;16.30;6.20;;;;;;;11.42;91.90;101489.47;109857;1264;22216;-75
2023/09/25 00:26:04;;;;;;;13.50;5.00;;;;;;;11.47;91.92;101494.57;109836;1283;22239;-75
2023/09/25 00:28:35;;;;;;;12.10;4.80;;;;;;;11.51;92.08;101490.42;109862;1278;22301;-76
2023/09/25 00:31:06;;;;;;;15.60;5.00;;;;;;;11.54;91.91;101486.78;109850;1283;22332;-76
2023/09/25 00:33:36;;;;;;;18.00;5.80;;;;;;;11.58;92.08;101483.86;109849;1283;22200;-76
2023/09/25 00:36:07;;;;;;;18.40;5.10;;;;;;;11.60;92.17;101483.60;109826;1273;22946;-75
2023/09/25 00:38:38;;;;;;;14.70;4.80;;;;;;;11.62;92.46;101482.25;109855;1277;23033;-75
2023/09/25 00:41:09;;;;;;;16.30;5.50;;;;;;;11.65;92.34;101479.83;109880;1283;22250;-76
2023/09/25 00:43:39;;;;;;;15.50;5.00;;;;;;;11.66;92.34;101477.34;109882;1283;22218;-75
2023/09/25 00:46:10;;;;;;;18.40;5.30;;;;;;;11.68;92.25;101476.47;109842;1283;22254;-75
2023/09/25 00:48:42;;;;;;;13.70;3.90;;;;;;;11.70;92.10;101471.59;109847;1283;22372;-75
2023/09/25 00:51:13;;;;;;;13.60;4.50;;;;;;;11.70;92.12;101471.81;109886;1283;22322;-75
2023/09/25 00:53:45;;;;;;;11.00;4.30;;;;;;;11.73;91.98;101471.40;109864;1283;22324;-75
2023/09/25 00:56:16;;;;;;;13.50;4.20;;;;;;;11.76;91.97;101477.38;109861;1283;22925;-75
2023/09/25 00:58:47;;;;;;;12.40;4.20;;;;;;;11.78;92.10;101477.77;109842;1283;22292;-75
2023/09/25 01:01:18;;;;;;;13.40;4.30;;;;;;;11.80;91.93;101476.58;109849;1283;22246;-76
2023/09/25 01:03:48;;;;;;;13.30;4.10;;;;;;;11.82;92.07;101479.44;109839;1283;22225;-76
2023/09/25 01:06:19;;;;;;;9.70;3.80;;;;;;;11.85;92.10;101483.41;109808;1276;22742;-75
2023/09/25 01:08:50;;;;;;;11.50;4.20;;;;;;;11.87;92.08;101481.64;109903;1283;22238;-76
2023/09/25 01:11:21;;;;;;;10.80;4.00;;;;;;;11.90;92.05;101489.59;109838;1283;22168;-75
2023/09/25 01:13:52;;;;;;;15.30;4.20;;;;;;;11.92;92.22;101489.54;109847;1283;22227;-75
2023/09/25 01:16:24;;;;;;;10.50;3.90;;;;;;;11.94;92.02;101491.44;109804;1283;22310;-76
2023/09/25 01:18:54;;;;;;;13.10;3.60;;;;;;;11.96;92.16;101493.06;109862;1283;22324;-76
2023/09/25 01:21:26;;;;;;;11.90;4.20;;;;;;;11.97;92.11;101494.05;109851;1276;22810;-76
2023/09/25 01:23:56;;;;;;;13.30;4.50;;;;;;;12.00;92.22;101497.14;109857;1283;22951;-75
2023/09/25 01:26:27;;;;;;;11.70;3.70;;;;;;;12.03;92.47;101501.09;109854;1277;23078;-75
2023/09/25 01:28:58;;;;;;;11.30;3.30;;;;;;;12.06;92.42;101499.63;109879;1283;22235;-75
2023/09/25 01:31:29;;;;;;;14.80;5.00;;;;;;;12.08;92.67;101496.48;109873;1283;22936;-76
2023/09/25 01:33:59;;;;;;;11.70;3.80;;;;;;;12.09;92.45;101494.04;109868;1279;22398;-75
2023/09/25 01:36:30;;;;;;;10.70;4.20;;;;;;;12.11;92.49;101497.02;109855;1276;22243;-75
2023/09/25 01:39:01;;;;;;;9.90;3.60;;;;;;;12.13;92.67;101494.86;109880;1283;22561;-75
2023/09/25 01:41:32;;;;;;;10.50;3.60;;;;;;;12.15;92.78;101494.79;109846;1283;22195;-75
2023/09/25 01:44:02;;;;;;;11.60;4.00;;;;;;;12.16;92.90;101490.80;109874;1283;22195;-75
2023/09/25 01:46:33;;;;;;;11.80;3.40;;;;;;;12.18;92.88;101484.91;109878;1283;22182;-75
2023/09/25 01:49:04;;;;;;;11.20;4.10;;;;;;;12.19;92.98;101487.17;109892;1283;22239;-75
2023/09/25 01:51:35;;;;;;;13.70;4.00;;;;;;;12.21;92.99;101485.60;109938;1283;22198;-76
2023/09/25 01:54:06;;;;;;;14.10;4.50;;;;;;;12.22;92.71;101481.56;109875;1283;22873;-76
2023/09/25 01:56:37;;;;;;;12.30;4.30;;;;;;;12.23;92.48;101476.80;109844;1276;22181;-75
2023/09/25 01:59:07;;;;;;;13.30;4.40;;;;;;;12.25;92.55;101477.31;109856;1283;22195;-75
2023/09/25 02:01:38;;;;;;;13.80;4.50;;;;;;;12.26;92.42;101475.08;109862;1283;22185;-76
2023/09/25 02:04:09;;;;;;;11.40;4.00;;;;;;;12.28;92.63;101467.48;109851;1283;22227;-75
2023/09/25 02:06:40;;;;;;;12.80;4.10;;;;;;;12.30;92.63;101466.93;109842;1283;22778;-76
2023/09/25 02:09:11;;;;;;;13.00;3.90;;;;;;;12.32;92.67;101461.81;109900;1283;22261;-76
2023/09/25 02:11:42;;;;;;;11.20;4.30;;;;;;;12.33;92.61;101459.11;109878;1277;22171;-75
2023/09/25 02:14:12;;;;;;;14.80;4.20;;;;;;;12.34;92.66;101452.77;109908;1283;22196;-76
2023/09/25 02:16:43;;;;;;;10.50;3.60;;;;;;;12.35;92.77;101455.70;109875;1283;22178;-75
2023/09/25 02:19:13;;;;;;;13.40;3.80;;;;;;;12.35;92.59;101455.69;109847;1283;22173;-75
2023/09/25 02:21:44;;;;;;;11.50;3.80;;;;;;;12.35;92.54;101451.37;109859;1283;23053;-75
2023/09/25 02:24:15;;;;;;;11.30;4.00;;;;;;;12.34;92.50;101451.55;109867;1283;22223;-76
2023/09/25 02:26:45;;;;;;;12.20;3.70;;;;;;;12.36;92.54;101437.80;109865;1277;22372;-75
2023/09/25 02:29:16;;;;;;;16.30;3.90;;;;;;;12.37;92.43;101436.56;109897;1283;22230;-75
2023/09/25 02:31:46;;;;;;;15.50;3.30;;;;;;;12.38;92.45;101431.67;109849;1283;22246;-75
2023/09/25 02:34:17;;;;;;;10.60;3.40;;;;;;;12.40;92.43;101428.91;109874;1273;22224;-76
2023/09/25 02:36:48;;;;;;;12.30;3.70;;;;;;;12.41;92.30;101426.80;109838;1283;22997;-75
2023/09/25 02:39:19;;;;;;;11.30;4.10;;;;;;;12.43;92.38;101429.64;109858;1282;22401;-76
2023/09/25 02:41:49;;;;;;;16.00;4.70;;;;;;;12.46;92.17;101430.98;109869;1283;22186;-75
2023/09/25 02:44:20;;;;;;;12.50;3.80;;;;;;;12.47;92.18;101431.89;109860;1283;22196;-75
2023/09/25 02:46:51;;;;;;;11.00;3.30;;;;;;;12.49;92.24;101430.61;109885;1283;22703;-75
2023/09/25 02:49:22;;;;;;;12.90;4.50;;;;;;;12.49;92.08;101424.36;109871;1283;22232;-75
2023/09/25 02:51:52;;;;;;;13.60;4.00;;;;;;;12.50;92.08;101421.59;109891;1283;22206;-75
2023/09/25 02:54:23;;;;;;;11.60;3.20;;;;;;;12.50;92.09;101417.41;109867;1283;22196;-76
2023/09/25 02:56:53;;;;;;;10.20;3.40;;;;;;;12.51;91.95;101415.71;109866;1283;22872;-75
2023/09/25 02:59:24;;;;;;;9.00;3.00;;;;;;;12.52;91.88;101413.70;109869;1276;22165;-77
2023/09/25 03:01:55;;;;;;;10.00;3.70;;;;;;;12.51;91.70;101411.39;109893;1283;22183;-76
2023/09/25 03:04:25;;;;;;;12.30;3.50;;;;;;;12.52;91.84;101404.70;109871;1283;22409;-75
2023/09/25 03:06:56;;;;;;;12.20;3.80;;;;;;;12.52;91.90;101404.23;109839;1283;22866;-75
2023/09/25 03:09:27;;;;;;;10.60;3.40;;;;;;;12.51;91.88;101402.98;109892;1283;22417;-75
2023/09/25 03:11:59;;;;;;;13.00;4.20;;;;;;;12.51;91.99;101405.70;109866;1278;22147;-76
2023/09/25 03:14:29;;;;;;;14.20;3.70;;;;;;;12.51;92.02;101405.95;109894;1283;22176;-76
2023/09/25 03:17:00;;;;;;;10.10;3.40;;;;;;;12.52;92.11;101400.88;109876;1283;23273;-75
2023/09/25 03:19:35;;;;;;;15.10;4.60;;;;;;;12.51;92.08;101405.29;109872;1283;22265;-75
2023/09/25 03:22:06;;;;;;;10.80;4.40;;;;;;;12.52;92.09;101403.27;109886;1283;22156;-75
2023/09/25 03:24:37;;;;;;;9.30;3.70;;;;;;;12.51;92.05;101399.31;109822;1283;22218;-75
2023/09/25 03:27:07;;;;;;;12.20;3.90;;;;;;;12.52;92.07;101396.14;109867;1283;22190;-75
2023/09/25 03:29:38;;;;;;;10.80;4.30;;;;;;;12.53;92.07;101391.48;109846;1283;22200;-75
2023/09/25 03:32:09;;;;;;;11.50;3.30;;;;;;;12.54;92.16;101392.13;109862;1283;22169;-76
2023/09/25 03:34:40;;;;;;;10.70;3.30;;;;;;;12.55;92.16;101392.02;109878;1283;22294;-76
2023/09/25 03:37:10;;;;;;;9.60;3.30;;;;;;;12.56;92.18;101399.36;109881;1283;23054;-75
2023/09/25 03:39:41;;;;;;;13.00;4.10;;;;;;;12.56;92.16;101398.20;109836;1283;22146;-76
2023/09/25 03:42:12;;;;;;;10.40;3.60;;;;;;;12.58;92.16;101400.59;109881;1283;22244;-75
2023/09/25 03:44:42;;;;;;;9.90;3.20;;;;;;;12.60;92.22;101399.23;109838;1276;22425;-75
2023/09/25 03:47:13;;;;;;;13.30;4.10;;;;;;;12.64;92.36;101400.20;109861;1283;22666;-76
2023/09/25 03:49:44;;;;;;;14.00;3.90;;;;;;;12.65;92.17;101403.26;109858;1283;23139;-75
2023/09/25 03:52:15;;;;;;;16.50;4.20;;;;;;;12.66;92.26;101400.31;109886;1283;22219;-75
2023/09/25 03:54:45;;;;;;;10.60;3.60;;;;;;;12.68;92.22;101403.63;109820;1280;22711;-75
2023/09/25 03:57:16;;;;;;;12.10;3.20;;;;;;;12.71;92.09;101407.73;109876;1283;22342;-75
2023/09/25 03:59:46;;;;;;;10.80;3.80;;;;;;;12.72;92.11;101415.44;109829;1283;22198;-76
2023/09/25 04:02:17;;;;;;;10.30;3.60;;;;;;;12.74;92.10;101413.43;109856;1283;22183;-76
2023/09/25 04:04:48;;;;;;;8.40;2.60;;;;;;;12.77;92.02;101409.48;109842;1283;22187;-75
2023/09/25 04:07:18;;;;;;;9.30;2.30;;;;;;;12.78;92.27;101411.33;109832;1282;22157;-76
2023/09/25 04:09:49;;;;;;;10.10;3.20;;;;;;;12.80;92.23;101415.71;109824;1283;22161;-75
2023/09/25 04:12:20;;;;;;;8.00;2.70;;;;;;;12.82;92.37;101417.80;109867;1283;22124;-75
2023/09/25 04:14:53;;;;;;;10.60;3.50;;;;;;;12.82;92.39;101418.11;109872;1283;22690;-76
2023/09/25 04:17:24;;;;;;;9.90;3.90;;;;;;;12.83;92.38;101418.14;109815;1283;23262;-76
2023/09/25 04:19:55;;;;;;;10.50;3.20;;;;;;;12.85;92.37;101419.92;109813;1277;22158;-76
2023/09/25 04:22:27;;;;;;;11.30;3.70;;;;;;;12.87;92.48;101419.85;109796;1276;23417;-77
2023/09/25 04:24:57;;;;;;;11.70;3.70;;;;;;;12.87;92.33;101418.39;109826;1277;22966;-77
2023/09/25 04:27:29;;;;;;;17.70;2.90;;;;;;;12.88;92.26;101418.27;109825;1277;22439;-77
2023/09/25 04:29:59;;;;;;;11.00;4.10;;;;;;;12.90;92.16;101418.59;109820;1277;22191;-76
2023/09/25 04:32:30;;;;;;;13.90;4.30;;;;;;;12.91;92.05;101422.70;109853;1276;22171;-77
2023/09/25 04:35:02;;;;;;;11.70;3.00;;;;;;;12.93;92.19;101423.11;109835;1283;23125;-76
2023/09/25 04:37:32;;;;;;;12.40;3.80;;;;;;;12.94;92.16;101420.09;109838;1276;22185;-76
2023/09/25 04:40:09;;;;;;;7.90;2.90;;;;;;;12.96;92.08;101423.91;109835;1277;22316;-76
2023/09/25 04:42:40;;;;;;;11.70;3.20;;;;;;;12.98;92.02;101427.27;109784;1280;22224;-75
2023/09/25 04:45:13;;;;;;;11.70;3.10;;;;;;;13.00;92.11;101425.74;109834;1276;22157;-75
2023/09/25 04:47:45;;;;;;;12.90;3.30;;;;;;;13.01;92.00;101423.54;109849;1277;22277;-76
2023/09/25 04:50:16;;;;;;;10.90;2.50;;;;;;;13.03;91.90;101425.29;109883;1280;22181;-76
2023/09/25 04:52:48;;;;;;;9.50;2.80;;;;;;;13.04;91.90;101426.40;109822;1274;23176;-76
2023/09/25 04:55:19;;;;;;;12.10;3.10;;;;;;;13.05;91.93;101427.88;109865;1276;22267;-75
2023/09/25 04:57:50;;;;;;;11.00;2.80;;;;;;;13.06;92.12;101424.77;109795;1276;22391;-75
2023/09/25 05:00:24;;;;;;;17.20;3.00;;;;;;;13.08;92.12;101427.44;109822;1277;22326;-75
2023/09/25 05:02:56;;;;;;;9.20;2.80;;;;;;;13.10;92.02;101426.09;109822;1277;23108;-75
2023/09/25 05:05:28;;;;;;;13.00;3.70;;;;;;;13.11;92.14;101429.23;109808;1276;22343;-75
2023/09/25 05:07:59;;;;;;;15.60;3.90;;;;;;;13.12;92.10;101432.39;109828;1283;22178;-76
2023/09/25 05:10:30;;;;;;;14.70;4.30;;;;;;;13.13;92.09;101431.23;109821;1283;22885;-76
2023/09/25 05:13:01;;;;;;;11.50;3.80;;;;;;;13.15;92.10;101426.99;109811;1283;22236;-76
2023/09/25 05:15:31;;;;;;;11.10;3.10;;;;;;;13.15;92.04;101425.27;109819;1276;22332;-76
2023/09/25 05:18:03;;;;;;;11.00;3.40;;;;;;;13.16;91.94;101428.27;109788;1274;23649;-76
2023/09/25 05:20:34;;;;;;;12.20;3.40;;;;;;;13.18;91.96;101430.76;109816;1264;22155;-76
2023/09/25 05:23:05;;;;;;;14.10;3.40;;;;;;;13.19;92.15;101427.33;109863;1277;22402;-76
2023/09/25 05:25:36;;;;;;;11.20;3.10;;;;;;;13.22;92.18;101423.11;109889;1283;22215;-76
2023/09/25 05:28:07;;;;;;;10.70;3.00;;;;;;;13.24;92.00;101421.94;109893;1283;22136;-75
2023/09/25 05:30:38;;;;;;;9.20;2.60;;;;;;;13.26;92.33;101425.58;109845;1283;22367;-76
2023/09/25 05:33:09;;;;;;;10.50;3.50;;;;;;;13.27;92.36;101425.20;109842;1276;22338;-76
2023/09/25 05:35:40;;;;;;;13.90;3.40;;;;;;;13.29;92.06;101429.13;109776;1277;22269;-76
2023/09/25 05:38:10;;;;;;;10.30;2.90;;;;;;;13.31;92.08;101428.16;109771;1276;22267;-76
2023/09/25 05:40:41;;;;;;;9.70;3.20;;;;;;;13.34;92.24;101426.10;109807;1278;22353;-76
2023/09/25 05:43:12;;;;;;;12.70;4.30;;;;;;;13.36;92.35;101424.38;109813;1277;22116;-76
2023/09/25 05:45:43;;;;;;;10.10;2.90;;;;;;;13.38;92.19;101421.16;109769;1276;23229;-76
2023/09/25 05:48:14;;;;;;;11.20;3.50;;;;;;;13.41;92.16;101419.91;109826;1277;22183;-76
2023/09/25 05:50:45;;;;;;;12.90;3.90;;;;;;;13.44;92.32;101417.14;109813;1283;22355;-76
2023/09/25 05:53:16;;;;;;;11.80;4.00;;;;;;;13.48;92.32;101420.59;109854;1279;22225;-76
2023/09/25 05:55:48;;;;;;;12.80;4.00;;;;;;;13.50;92.41;101420.21;109780;1278;22325;-76
2023/09/25 05:58:19;;;;;;;12.40;4.00;;;;;;;13.53;92.33;101417.42;109799;1277;23260;-76
2023/09/25 06:00:50;;;;;;;10.00;2.90;;;;;;;13.57;92.51;101418.13;109816;1278;22271;-75
2023/09/25 06:03:22;;;;;;;11.80;3.90;;;;;;;13.60;92.06;101416.71;109825;1278;23220;-76
2023/09/25 06:05:55;;;;;;;9.80;3.20;;;;;;;13.63;91.92;101412.38;109769;1280;22336;-76
2023/09/25 06:08:26;;;;;;;12.20;3.80;;;;;;;13.68;92.00;101414.89;109783;1277;22177;-76
2023/09/25 06:11:03;;;;;;;14.10;3.70;;;;;;;13.72;92.12;101413.27;109783;1275;22334;-76
2023/09/25 06:13:34;;;;;;;14.40;4.90;;;;;;;13.76;92.27;101416.27;109820;1277;23244;-76
2023/09/25 06:16:05;;;;;;;13.70;3.10;;;;;;;13.79;92.10;101415.07;109817;1283;22139;-76
2023/09/25 06:18:36;;;;;;;11.70;3.60;;;;;;;13.84;91.88;101415.17;109779;1278;22318;-76
2023/09/25 06:21:08;;;;;;;11.70;3.20;;;;;;;13.89;92.15;101413.26;109836;1277;22175;-76
2023/09/25 06:23:38;;;;;;;10.60;2.70;;;;;;;13.92;92.02;101406.54;109846;1277;22233;-76
2023/09/25 06:26:10;;;;;;;8.40;2.60;;;;;;;13.94;92.05;101410.67;109807;1276;22949;-76
2023/09/25 06:28:42;;;;;;;15.10;3.20;;;;;;;14.01;91.99;101414.15;109841;1276;22221;-76
2023/09/25 06:31:13;;;;;;;10.30;2.90;;;;;;;14.06;91.95;101412.79;109822;1278;22348;-76
2023/09/25 06:33:44;;;;;;;11.40;4.40;;;;;;;14.11;91.95;101413.95;109848;1280;22231;-76
2023/09/25 06:36:14;;;;;;;8.90;2.20;;;;;;;14.16;91.80;101414.91;109807;1280;22148;-76
2023/09/25 06:38:45;;;;;;;9.90;2.40;;;;;;;14.21;91.50;101417.89;109850;1283;23033;-76
2023/09/25 06:41:16;;;;;;;9.10;3.00;;;;;;;14.25;91.38;101420.40;109841;1277;22269;-77
2023/09/25 06:43:46;;;;;;;13.20;3.50;;;;;;;14.29;91.37;101417.64;109816;1277;22356;-76
2023/09/25 06:46:20;;;;;;;8.80;2.70;;;;;;;14.34;90.97;101419.91;109823;1278;23288;-77
2023/09/25 06:48:51;;;;;;;8.40;2.80;;;;;;;14.38;91.13;101423.22;109871;1275;22211;-77
2023/09/25 06:51:23;;;;;;;10.40;3.00;;;;;;;14.43;91.15;101424.01;109818;1283;23171;-76
2023/09/25 06:53:53;;;;;;;11.00;3.10;;;;;;;14.48;91.09;101428.41;109864;1277;22232;-76
2023/09/25 06:56:25;;;;;;;12.00;3.20;;;;;;;14.53;90.97;101428.66;109863;1278;23012;-76
2023/09/25 06:58:55;;;;;;;11.50;2.30;;;;;;;14.56;90.69;101425.52;109886;1283;22327;-76
2023/09/25 07:01:26;;;;;;;12.10;3.30;;;;;;;14.60;90.69;101427.43;109851;1278;22355;-76
2023/09/25 07:04:00;;;;;;;10.00;2.90;;;;;;;14.64;90.68;101430.84;109814;1278;22266;-76
2023/09/25 07:06:33;;;;;;;8.50;2.40;;;;;;;14.68;90.40;101435.87;109803;1276;22319;-76
2023/09/25 07:09:07;;;;;;;11.60;3.00;;;;;;;14.70;90.37;101437.44;109816;1277;23165;-75
2023/09/25 07:11:38;;;;;;;12.30;3.30;;;;;;;14.73;90.49;101437.42;109809;1279;22486;-74
2023/09/25 07:14:09;;;;;;;10.20;2.80;;;;;;;14.77;90.47;101433.46;109843;1276;22185;-75
2023/09/25 07:16:40;;;;;;;8.10;2.60;;;;;;;14.81;90.21;101434.62;109797;1276;22290;-75
2023/09/25 07:19:12;;;;;;;11.80;2.70;;;;;;;14.85;90.08;101432.81;109860;1278;22421;-75
2023/09/25 07:21:43;;;;;;;9.80;3.30;;;;;;;14.89;89.84;101435.19;109791;1276;22777;-75
2023/09/25 07:24:14;;;;;;;12.70;3.10;;;;;;;14.94;89.99;101433.05;109845;1280;22175;-76
2023/09/25 07:26:45;;;;;;;10.40;2.80;;;;;;;15.02;90.22;101442.61;109803;1279;22228;-75
2023/09/25 07:29:16;;;;;;;11.10;3.50;;;;;;;15.08;90.29;101440.19;109831;1276;22413;-76
2023/09/25 07:31:46;;;;;;;13.50;4.80;;;;;;;15.16;90.37;101435.27;109820;1280;22167;-76
2023/09/25 07:34:17;;;;;;;10.70;3.00;;;;;;;15.24;90.03;101437.48;109806;1283;22325;-76
2023/09/25 07:36:47;;;;;;;10.10;2.90;;;;;;;15.33;89.99;101438.78;109822;1280;22283;-76
2023/09/25 07:39:22;;;;;;;10.70;2.60;;;;;;;15.41;89.51;101437.64;109837;1283;23258;-76
2023/09/25 07:41:53;;;;;;;7.80;2.60;;;;;;;15.47;89.21;101438.05;109803;1277;22340;-75
2023/09/25 07:44:26;;;;;;;9.20;2.30;;;;;;;15.53;89.18;101437.95;109853;1277;22268;-76
2023/09/25 07:46:59;;;;;;;15.40;2.90;;;;;;;15.60;89.13;101437.41;109842;1279;22830;-76
2023/09/25 07:49:29;;;;;;;8.10;2.40;;;;;;;15.65;88.94;101441.39;109796;1277;22291;-76
2023/09/25 07:52:00;;;;;;;12.00;3.40;;;;;;;15.70;88.73;101437.98;109810;1273;22216;-77
2023/09/25 07:54:31;;;;;;;14.90;2.90;;;;;;;15.76;88.83;101440.17;109820;1276;22370;-75
2023/09/25 07:57:01;;;;;;;9.30;2.70;;;;;;;15.80;88.61;101438.25;109856;1277;22239;-77
2023/09/25 07:59:32;;;;;;;12.80;2.90;;;;;;;15.84;88.33;101436.90;109851;1283;23068;-77
2023/09/25 08:02:03;;;;;;;10.60;3.00;;;;;;;15.88;88.26;101434.56;109896;1276;22260;-76
2023/09/25 08:04:34;;;;;;;10.00;2.60;;;;;;;15.96;88.73;101432.98;109869;1273;22161;-76
2023/09/25 08:07:05;;;;;;;9.90;2.60;;;;;;;16.06;88.75;101436.28;109866;1279;22878;-76
2023/09/25 08:09:36;;;;;;;7.00;2.10;;;;;;;16.13;88.51;101433.80;109863;1283;22182;-77
2023/09/25 08:12:08;;;;;;;9.10;2.30;;;;;;;16.17;88.20;101429.27;109880;1280;22959;-76
2023/09/25 08:14:39;;;;;;;8.70;2.40;;;;;;;16.21;87.94;101422.17;109863;1279;22339;-76
2023/09/25 08:17:09;;;;;;;8.40;2.30;;;;;;;16.25;87.54;101421.60;109860;1283;22146;-76
2023/09/25 08:19:40;;;;;;;9.40;2.30;;;;;;;16.30;87.87;101423.31;109827;1281;22145;-77
2023/09/25 08:22:11;;;;;;;9.50;2.40;;;;;;;16.35;87.81;101424.98;109856;1280;22191;-77
2023/09/25 08:24:42;;;;;;;10.00;2.90;;;;;;;16.40;87.72;101424.29;109907;1283;23081;-77
2023/09/25 08:27:13;;;;;;;16.40;2.50;;;;;;;16.45;87.68;101420.52;109860;1283;22151;-77
2023/09/25 08:29:45;;;;;;;12.60;3.20;;;;;;;16.52;87.81;101418.13;109877;1283;22171;-77
2023/09/25 08:32:16;;;;;;;9.40;2.10;;;;;;;16.60;87.70;101415.56;109865;1283;23036;-76
2023/09/25 08:34:47;;;;;;;6.80;2.10;;;;;;;16.66;87.38;101411.34;109887;1281;22180;-77
2023/09/25 08:37:17;;;;;;;12.60;2.30;;;;;;;16.71;87.24;101408.22;109895;1283;22272;-77
2023/09/25 08:39:48;;;;;;;7.00;2.00;;;;;;;16.76;87.18;101410.08;109890;1283;22943;-76
2023/09/25 08:42:20;;;;;;;6.10;2.00;;;;;;;16.80;87.04;101404.40;109879;1283;22125;-77
2023/09/25 08:44:52;;;;;;;8.00;2.30;;;;;;;16.86;86.92;101401.55;109880;1283;22150;-77
2023/09/25 08:47:26;;;;;;;6.90;1.70;;;;;;;16.93;86.87;101403.11;109843;1280;22159;-77
2023/09/25 08:49:58;;;;;;;6.10;1.70;;;;;;;16.99;86.68;101402.14;109840;1283;22151;-77
2023/09/25 08:52:30;;;;;;;6.80;1.80;;;;;;;17.07;86.79;101398.14;109895;1279;22346;-77
2023/09/25 08:55:01;;;;;;;6.50;1.50;;;;;;;17.15;86.67;101398.27;109885;1283;22206;-76
2023/09/25 08:57:31;;;;;;;6.80;1.80;;;;;;;17.21;86.53;101394.95;109866;1283;22165;-76
2023/09/25 09:00:11;;;;;;;7.00;2.10;;;;;;;17.27;86.30;101392.65;109869;1279;23035;-77
2023/09/25 09:02:43;;;;;;;6.70;1.60;;;;;;;17.32;85.93;101389.98;109879;1283;22184;-77
2023/09/25 09:05:14;;;;;;;6.90;1.40;;;;;;;17.35;85.84;101391.66;109885;1283;22142;-76
2023/09/25 09:08:00;;;;;;;5.30;1.50;;;;;;;17.39;85.67;101390.86;109905;1283;23038;-76
2023/09/25 09:10:33;;;;;;;4.70;1.30;;;;;;;17.43;85.43;101387.21;109897;1283;22144;-76
2023/09/25 09:13:10;;;;;;;6.80;1.70;;;;;;;17.47;85.29;101383.76;109904;1283;22348;-76
2023/09/25 09:15:41;;;;;;;8.90;1.80;;;;;;;17.52;85.39;101388.45;109898;1278;22907;-76
2023/09/25 09:18:23;;;;;;;6.90;1.90;;;;;;;17.58;85.32;101386.77;109838;1283;22204;-76
2023/09/25 09:20:54;;;;;;;8.00;1.40;;;;;;;17.64;85.00;101381.47;109841;1283;22929;-76
2023/09/25 09:23:40;;;;;;;5.50;1.60;;;;;;;17.70;84.95;101384.56;109880;1276;22981;-76
2023/09/25 09:26:12;;;;;;;5.70;1.50;;;;;;;17.76;84.73;101380.91;109861;1283;22183;-76
2023/09/25 09:28:46;;;;;;;7.50;1.20;;;;;;;17.84;85.03;101377.52;109866;1283;22215;-76
2023/09/25 09:31:19;;;;;;;6.30;1.40;;;;;;;17.93;84.73;101378.67;109858;1283;22957;-76
2023/09/25 09:33:50;;;;;;;8.20;1.20;;;;;;;18.01;84.62;101375.08;109883;1280;22207;-76
2023/09/25 09:36:21;;;;;;;5.00;1.20;;;;;;;18.10;84.72;101372.77;109846;1283;22843;-76
2023/09/25 09:38:54;;;;;;;5.20;1.20;;;;;;;18.19;84.54;101373.59;109882;1283;22896;-76
2023/09/25 09:41:25;;;;;;;7.80;1.10;;;;;;;18.27;84.37;101369.80;109890;1283;22182;-76
2023/09/25 09:43:56;;;;;;;5.30;1.10;;;;;;;18.35;84.13;101367.48;109867;1283;22147;-76
2023/09/25 09:46:29;;;;;;;10.60;1.50;;;;;;;18.40;83.96;101374.23;109866;1276;22157;-76
2023/09/25 09:49:02;;;;;;;3.70;1.20;;;;;;;18.45;83.64;101372.95;109853;1283;22342;-76
2023/09/25 09:51:34;;;;;;;6.80;1.30;;;;;;;18.51;83.57;101371.08;109881;1283;22338;-76
2023/09/25 09:54:06;;;;;;;9.00;1.50;;;;;;;18.61;83.72;101371.27;109877;1276;22279;-76
2023/09/25 09:56:38;;;;;;;7.00;1.10;;;;;;;18.70;83.61;101366.02;109871;1280;22205;-76
2023/09/25 09:59:08;;;;;;;5.30;1.20;;;;;;;18.78;83.20;101362.64;109903;1283;22176;-76
2023/09/25 10:01:43;;;;;;;4.50;1.00;;;;;;;18.86;83.18;101367.71;109865;1283;22279;-76
2023/09/25 10:04:14;;;;;;;7.10;1.10;;;;;;;18.93;82.84;101369.27;109883;1283;22166;-76
2023/09/25 10:06:52;;;;;;;4.10;0.90;;;;;;;18.98;82.42;101373.26;109708;1283;200640;-76
2023/09/25 10:09:23;;;;;;;5.20;1.10;;;;;;;19.06;82.59;101371.73;109885;1280;22191;-76
2023/09/25 10:11:54;;;;;;;8.20;1.40;;;;;;;19.15;82.49;101370.31;109867;1283;22641;-76
2023/09/25 10:14:26;;;;;;;5.60;1.10;;;;;;;19.22;82.26;101371.41;109861;1283;22395;-76
2023/09/25 10:16:59;;;;;;;3.30;1.00;;;;;;;19.29;82.01;101372.39;109860;1280;22226;-76
2023/09/25 10:19:53;;;;;;;12.20;2.90;;;;;;;19.35;81.88;101368.67;109907;1283;22457;-77
2023/09/25 10:22:29;;;;;;;12.80;4.20;;;;;;;19.43;81.91;101368.58;109816;1283;23131;-76
2023/09/25 10:25:06;;;;;;;6.30;1.90;;;;;;;19.50;81.50;101366.78;109837;1283;22284;-76
2023/09/25 10:27:40;;;;;;;5.00;1.40;;;;;;;19.56;81.59;101369.30;109863;1280;22343;-76
2023/09/25 10:30:14;;;;;;;5.20;1.00;;;;;;;19.60;81.31;101361.06;109883;1272;23245;-76
2023/09/25 10:32:53;;;;;;;5.70;1.10;;;;;;;19.65;81.04;101361.48;109887;1269;22311;-76
2023/09/25 10:35:48;;;;;;;14.10;3.30;;;;;;;19.70;81.04;101360.29;109859;1283;23041;-76
2023/09/25 10:38:22;;;;;;;10.80;3.70;;;;;;;19.76;80.84;101355.29;109431;1289;22197;-77
2023/09/25 10:40:54;;;;;;;7.20;1.50;;;;;;;19.79;80.45;101357.81;109448;1289;22179;-76
2023/09/25 10:43:25;;;;;;;5.00;1.10;;;;;;;19.82;80.15;101358.73;109460;1283;22255;-76
2023/09/25 10:45:56;;;;;;;7.60;1.50;;;;;;;19.83;80.13;101359.77;109424;1288;22191;-76
2023/09/25 10:48:28;;;;;;;5.70;1.40;;;;;;;19.85;80.14;101357.38;109434;1279;22287;-76
2023/09/25 10:50:59;;;;;;;6.20;1.10;;;;;;;19.86;80.20;101357.13;109461;1289;22252;-77
2023/09/25 10:53:30;;;;;;;4.30;1.00;;;;;;;19.88;80.04;101354.26;109443;1283;22323;-77
2023/09/25 10:56:01;;;;;;;4.90;1.10;;;;;;;19.90;79.85;101351.78;109426;1286;22936;-76
2023/09/25 10:58:32;;;;;;;5.20;1.00;;;;;;;19.91;79.66;101350.64;109411;1288;22268;-77
2023/09/25 11:01:04;;;;;;;4.10;1.20;;;;;;;19.93;79.60;101349.50;109429;1289;22695;-77
2023/09/25 11:03:36;;;;;;;2.70;0.90;;;;;;;19.97;79.62;101344.23;109459;1285;23072;-76
2023/09/25 11:06:08;;;;;;;7.10;0.90;;;;;;;20.02;79.48;101345.67;109415;1285;22255;-76
2023/09/25 11:08:39;;;;;;;6.30;1.60;;;;;;;20.04;79.40;101345.96;109407;1289;22329;-77
2023/09/25 11:11:13;;;;;;;2.50;0.80;;;;;;;20.07;79.38;101345.09;109436;1286;22971;-76
2023/09/25 11:13:44;;;;;;;4.00;1.00;;;;;;;20.11;78.86;101349.32;109435;1283;22325;-76
2023/09/25 11:16:15;;;;;;;7.00;1.40;;;;;;;20.14;78.76;101348.73;109742;1283;22173;-76
2023/09/25 11:18:47;;;;;;;4.80;1.10;;;;;;;20.20;78.83;101348.48;109887;1277;22237;-77
2023/09/25 11:21:17;;;;;;;5.10;0.90;;;;;;;20.26;78.42;101346.09;109876;1283;22147;-77
2023/09/25 11:23:49;;;;;;;3.80;1.00;;;;;;;20.29;78.42;101343.98;109892;1279;22193;-77
2023/09/25 11:26:25;;;;;;;6.50;1.20;;;;;;;20.34;78.44;101342.46;109873;1283;22249;-77
2023/09/25 11:28:58;;;;;;;5.70;0.90;;;;;;;20.38;78.34;101341.67;109845;1283;22153;-77
2023/09/25 11:34:54;;;;;;;3.10;0.70;;;;;;;20.46;77.89;101338.55;109505;1288;22229;-77